Accueil
METAR-TAF:

METAR-TAF

Aéroports :

Dax, France

Seyresse

latitude: 43-41N, longitude: 001-04W, altitude: 32 m

Observation

Le bulletin a été fait il y a 39 minutes, à 12:00 UTC
Vent 6 kt de ouest, variant entre sud/sud-ouest et nord/nord-ouest
Température 26°C
Humidité 54%
Pression 1015 hPa
Visibilité 10 km ou plus
Quelques nuages à une hauteur de 2600 ft

METAR: LFBY 271200Z 28006KT 210V330 9999 FEW026 26/16 Q1015

Heure: 14:39 (12:39 UTC)

Prévision

Le bulletin a été fait il y a 4 heures et 39 minutes, à 08:00 UTC
Prévision valable du 27 à 09 UTC au 27 à 18 UTC
Vent 6 kt de sud/sud-ouest
Visibilité 10 km ou plus
Quelques nuages à une hauteur de 1200 ft
Nuages fragmentés à une hauteur de 2000 ft
Evoluant progressivement
du 27 à 09 UTC au 27 à 11 UTC
Visibilité 10 km ou plus
Nuages épars à une hauteur de 3000 ft

TAF: LFBY 270800Z 2709/2718 21006KT 9999 FEW012 BKN020 BECMG 2709/2711 9999 SCT030

Observations et prévisions météorologiques de plus de 4000 aéroports (messages METAR et TAF).

Les stations disponibles sont représentées par des disques jaunes et rouges sur la carte.

Passer la souris dessus pour voir le nom de la station.

Cliquer dessus pour voir les observations et prévisions météorologiques.

Pour changer de carte: cliquez sur les boutons verts avec une croix noire pour zoomer, sur le bouton vert avec un tiret pour effectuer un zoom arrière, ou sur les flèches vertes pour les cartes adjacentes.


METAR-TAF: